Time;durP1;ratioP1;P1;durP2;ratioP2;P2;SDS_P1;SDS_P2;PMS_P1;PMS_P2;Temp;Humidity;BMP_temperature;BMP_pressure;BME280_temperature;BME280_humidity;BME280_pressure;Samples;Min_cycle;Max_cycle;Signal;HPM_P1;HPM_P2
2023/12/10 00:00:15;;;;;;;;;;;;;;;;;;5093011;28;19998;-63
2023/12/10 00:02:40;;;;;;;;;;;;;;;;;;5091008;28;20002;-62
2023/12/10 00:05:06;;;;;;;;;;;;;;;;;;5085154;28;19920;-62
2023/12/10 00:07:32;;;;;;;;;;;;;;;;;;5093853;28;20440;-62
2023/12/10 00:09:58;;;;;;;;;;;;;;;;;;5080066;28;19966;-62
2023/12/10 00:12:24;;;;;;;;;;;;;;;;;;5077598;28;19909;-62
2023/12/10 00:14:54;;;;;;;;;;;;;;;;;;5092330;28;20392;-62
2023/12/10 00:17:20;;;;;;;;;;;;;;;;;;5079239;28;19939;-63
2023/12/10 00:19:46;;;;;;;;;;;;;;;;;;5086862;28;20395;-62
2023/12/10 00:22:12;;;;;;;;;;;;;;;;;;5086015;28;19951;-62
2023/12/10 00:24:38;;;;;;;;;;;;;;;;;;5092511;28;19964;-62
2023/12/10 00:27:03;;;;;;;;;;;;;;;;;;5084691;28;20467;-62
2023/12/10 00:29:29;;;;;;;;;;;;;;;;;;5079117;28;19978;-62
2023/12/10 00:31:55;;;;;;;;;;;;;;;;;;5084138;28;20002;-62
2023/12/10 00:34:21;;;;;;;;;;;;;;;;;;5083144;28;19995;-61
2023/12/10 00:36:47;;;;;;;;;;;;;;;;;;5089175;28;20002;-61
2023/12/10 00:39:13;;;;;;;;;;;;;;;;;;5090324;28;20003;-62
2023/12/10 00:41:39;;;;;;;;;;;;;;;;;;5093454;28;19959;-61
2023/12/10 00:44:05;;;;;;;;;;;;;;;;;;5078854;28;19934;-62
2023/12/10 00:46:31;;;;;;;;;;;;;;;;;;5086762;28;19916;-64
2023/12/10 00:48:57;;;;;;;;;;;;;;;;;;5089152;28;19920;-64
2023/12/10 00:51:23;;;;;;;;;;;;;;;;;;5072961;28;19951;-64
2023/12/10 00:53:49;;;;;;;;;;;;;;;;;;5076221;28;20364;-63
2023/12/10 00:56:15;;;;;;;;;;;;;;;;;;5078361;28;20334;-64
2023/12/10 00:58:41;;;;;;;;;;;;;;;;;;5091744;28;19947;-64
2023/12/10 01:01:07;;;;;;;;;;;;;;;;;;5088081;28;19923;-63
2023/12/10 01:03:33;;;;;;;;;;;;;;;;;;5072978;28;19967;-63
2023/12/10 01:05:59;;;;;;;;;;;;;;;;;;5078662;28;19947;-63
2023/12/10 01:08:25;;;;;;;;;;;;;;;;;;5089256;28;19958;-63
2023/12/10 01:10:51;;;;;;;;;;;;;;;;;;5085954;28;19985;-63
2023/12/10 01:13:17;;;;;;;;;;;;;;;;;;5089882;28;20074;-63
2023/12/10 01:15:43;;;;;;;;;;;;;;;;;;5091042;28;19912;-64
2023/12/10 01:18:10;;;;;;;;;;;;;;;;;;5084674;28;19999;-64
2023/12/10 01:20:37;;;;;;;;;;;;;;;;;;5075254;28;20700;-64
2023/12/10 01:23:07;;;;;;;;;;;;;;;;;;5076032;28;20476;-63
2023/12/10 01:25:34;;;;;;;;;;;;;;;;;;5086662;28;20402;-63
2023/12/10 01:28:00;;;;;;;;;;;;;;;;;;5084499;28;19924;-63
2023/12/10 01:30:26;;;;;;;;;;;;;;;;;;5087041;28;20409;-63
2023/12/10 01:32:52;;;;;;;;;;;;;;;;;;5082466;28;20354;-63
2023/12/10 01:35:18;;;;;;;;;;;;;;;;;;5088062;28;19956;-64
2023/12/10 01:37:44;;;;;;;;;;;;;;;;;;5085962;28;19956;-63
2023/12/10 01:40:10;;;;;;;;;;;;;;;;;;5082635;28;19962;-63
2023/12/10 01:42:36;;;;;;;;;;;;;;;;;;5084532;28;19958;-63
2023/12/10 01:45:04;;;;;;;;;;;;;;;;;;5080299;28;20029;-64
2023/12/10 01:47:29;;;;;;;;;;;;;;;;;;5078843;28;21055;-63
2023/12/10 01:49:55;;;;;;;;;;;;;;;;;;5084140;28;19919;-63
2023/12/10 01:52:22;;;;;;;;;;;;;;;;;;5078110;28;19912;-63
2023/12/10 01:54:48;;;;;;;;;;;;;;;;;;5085634;28;19912;-63
2023/12/10 01:57:13;;;;;;;;;;;;;;;;;;5090614;28;19920;-64
2023/12/10 01:59:39;;;;;;;;;;;;;;;;;;5091869;28;19998;-63
2023/12/10 02:02:05;;;;;;;;;;;;;;;;;;5090913;28;19916;-59
2023/12/10 02:04:31;;;;;;;;;;;;;;;;;;5091824;28;19912;-59
2023/12/10 02:06:57;;;;;;;;;;;;;;;;;;5090288;28;19962;-59
2023/12/10 02:09:24;;;;;;;;;;;;;;;;;;5083602;28;20273;-59
2023/12/10 02:11:49;;;;;;;;;;;;;;;;;;5088138;28;20275;-60
2023/12/10 02:14:15;;;;;;;;;;;;;;;;;;5080102;28;19995;-58
2023/12/10 02:16:41;;;;;;;;;;;;;;;;;;5082201;28;19918;-59
2023/12/10 02:19:07;;;;;;;;;;;;;;;;;;5082185;28;20372;-61
2023/12/10 02:21:33;;;;;;;;;;;;;;;;;;5087285;28;20056;-59
2023/12/10 02:23:59;;;;;;;;;;;;;;;;;;5093934;28;19931;-59
2023/12/10 02:26:25;;;;;;;;;;;;;;;;;;5079957;28;19954;-59
2023/12/10 02:28:51;;;;;;;;;;;;;;;;;;5086212;28;19912;-61
2023/12/10 02:31:17;;;;;;;;;;;;;;;;;;5094345;28;19916;-58
2023/12/10 02:33:43;;;;;;;;;;;;;;;;;;5088459;28;19920;-61
2023/12/10 02:36:09;;;;;;;;;;;;;;;;;;5078697;28;19917;-61
2023/12/10 02:38:35;;;;;;;;;;;;;;;;;;5085439;28;20011;-58
2023/12/10 02:41:01;;;;;;;;;;;;;;;;;;5088649;28;19961;-59
2023/12/10 02:43:27;;;;;;;;;;;;;;;;;;5092078;28;19973;-60
2023/12/10 02:45:52;;;;;;;;;;;;;;;;;;5087588;28;19955;-58
2023/12/10 02:48:21;;;;;;;;;;;;;;;;;;5090445;28;19951;-60
2023/12/10 02:50:47;;;;;;;;;;;;;;;;;;5086327;28;19920;-59
2023/12/10 02:53:13;;;;;;;;;;;;;;;;;;5090588;28;19963;-59
2023/12/10 02:55:39;;;;;;;;;;;;;;;;;;5081149;28;19934;-59
2023/12/10 02:58:05;;;;;;;;;;;;;;;;;;5090283;28;19920;-59
2023/12/10 03:00:31;;;;;;;;;;;;;;;;;;5079103;28;20406;-59
2023/12/10 03:02:57;;;;;;;;;;;;;;;;;;5079909;28;20006;-61
2023/12/10 03:05:23;;;;;;;;;;;;;;;;;;5089654;28;19919;-58
2023/12/10 03:07:48;;;;;;;;;;;;;;;;;;5086840;28;19965;-61
2023/12/10 03:10:14;;;;;;;;;;;;;;;;;;5075789;28;19912;-60
2023/12/10 03:12:40;;;;;;;;;;;;;;;;;;5088175;28;19956;-61
2023/12/10 03:15:06;;;;;;;;;;;;;;;;;;5077728;28;19927;-62
2023/12/10 03:17:32;;;;;;;;;;;;;;;;;;5084350;28;20403;-62
2023/12/10 03:19:58;;;;;;;;;;;;;;;;;;5094272;28;20018;-62
2023/12/10 03:22:24;;;;;;;;;;;;;;;;;;5094731;28;19955;-62
2023/12/10 03:24:50;;;;;;;;;;;;;;;;;;5094316;28;19915;-62
2023/12/10 03:27:16;;;;;;;;;;;;;;;;;;5082998;28;19956;-62
2023/12/10 03:29:42;;;;;;;;;;;;;;;;;;5081170;28;19990;-62
2023/12/10 03:32:07;;;;;;;;;;;;;;;;;;5087618;28;19970;-62
2023/12/10 03:34:33;;;;;;;;;;;;;;;;;;5079545;28;19912;-62
2023/12/10 03:37:00;;;;;;;;;;;;;;;;;;5083791;28;20299;-62
2023/12/10 03:39:26;;;;;;;;;;;;;;;;;;5090079;28;19912;-61
2023/12/10 03:41:51;;;;;;;;;;;;;;;;;;5088622;28;19958;-62
2023/12/10 03:44:17;;;;;;;;;;;;;;;;;;5073694;28;20348;-62
2023/12/10 03:46:43;;;;;;;;;;;;;;;;;;5085052;28;19912;-62
2023/12/10 03:49:09;;;;;;;;;;;;;;;;;;5081393;28;19952;-62
2023/12/10 03:51:35;;;;;;;;;;;;;;;;;;5092043;28;20269;-62
2023/12/10 03:54:01;;;;;;;;;;;;;;;;;;5084390;28;19919;-61
2023/12/10 03:56:27;;;;;;;;;;;;;;;;;;5085276;28;19912;-62
2023/12/10 03:58:53;;;;;;;;;;;;;;;;;;5088732;28;20415;-62
2023/12/10 04:01:19;;;;;;;;;;;;;;;;;;5086324;28;20019;-62
2023/12/10 04:03:45;;;;;;;;;;;;;;;;;;5076919;28;19975;-62
2023/12/10 04:06:11;;;;;;;;;;;;;;;;;;5088685;28;20011;-62
2023/12/10 04:08:37;;;;;;;;;;;;;;;;;;5081180;28;19923;-61
2023/12/10 04:11:03;;;;;;;;;;;;;;;;;;5082885;28;20376;-62
2023/12/10 04:13:29;;;;;;;;;;;;;;;;;;5088453;28;20006;-62
2023/12/10 04:15:55;;;;;;;;;;;;;;;;;;5088178;28;20010;-62
2023/12/10 04:18:20;;;;;;;;;;;;;;;;;;5087511;28;19918;-62
2023/12/10 04:20:46;;;;;;;;;;;;;;;;;;5078229;28;20005;-62
2023/12/10 04:23:12;;;;;;;;;;;;;;;;;;5086517;28;20014;-62
2023/12/10 04:25:38;;;;;;;;;;;;;;;;;;5082224;28;19916;-63
2023/12/10 04:28:06;;;;;;;;;;;;;;;;;;5089732;28;19920;-63
2023/12/10 04:30:32;;;;;;;;;;;;;;;;;;5086646;28;20433;-64
2023/12/10 04:32:58;;;;;;;;;;;;;;;;;;5077006;28;19951;-64
2023/12/10 04:35:24;;;;;;;;;;;;;;;;;;5091674;28;19917;-64
2023/12/10 04:37:50;;;;;;;;;;;;;;;;;;5077762;28;19982;-64
2023/12/10 04:40:16;;;;;;;;;;;;;;;;;;5082051;28;20322;-63
2023/12/10 04:42:42;;;;;;;;;;;;;;;;;;5083587;28;19955;-63
2023/12/10 04:45:08;;;;;;;;;;;;;;;;;;5086150;28;19916;-63
2023/12/10 04:47:34;;;;;;;;;;;;;;;;;;5073891;28;20348;-64
2023/12/10 04:50:02;;;;;;;;;;;;;;;;;;5087769;28;19908;-64
2023/12/10 04:52:28;;;;;;;;;;;;;;;;;;5092197;28;20427;-64
2023/12/10 04:54:54;;;;;;;;;;;;;;;;;;5087403;28;19996;-64
2023/12/10 04:57:20;;;;;;;;;;;;;;;;;;5081971;28;19916;-63
2023/12/10 04:59:46;;;;;;;;;;;;;;;;;;5081633;28;19927;-63
2023/12/10 05:02:11;;;;;;;;;;;;;;;;;;5085584;28;19974;-63
2023/12/10 05:04:37;;;;;;;;;;;;;;;;;;5085366;28;20261;-64
2023/12/10 05:07:03;;;;;;;;;;;;;;;;;;5077540;28;19912;-64
2023/12/10 05:09:29;;;;;;;;;;;;;;;;;;5073953;28;19947;-63
2023/12/10 05:11:55;;;;;;;;;;;;;;;;;;5085832;28;19918;-64
2023/12/10 05:14:21;;;;;;;;;;;;;;;;;;5081436;28;20006;-64
2023/12/10 05:16:47;;;;;;;;;;;;;;;;;;5090559;28;20340;-64
2023/12/10 05:19:13;;;;;;;;;;;;;;;;;;5087331;28;19995;-64
2023/12/10 05:21:39;;;;;;;;;;;;;;;;;;5086119;28;20020;-64
2023/12/10 05:24:05;;;;;;;;;;;;;;;;;;5080996;28;20340;-64
2023/12/10 05:26:31;;;;;;;;;;;;;;;;;;5087558;28;20006;-64
2023/12/10 05:28:57;;;;;;;;;;;;;;;;;;5083631;28;20014;-64
2023/12/10 05:31:22;;;;;;;;;;;;;;;;;;5081176;28;20409;-64
2023/12/10 05:33:48;;;;;;;;;;;;;;;;;;5085623;28;20379;-64
2023/12/10 05:36:14;;;;;;;;;;;;;;;;;;5084442;28;19912;-62
2023/12/10 05:38:40;;;;;;;;;;;;;;;;;;5092266;28;20321;-63
2023/12/10 05:41:06;;;;;;;;;;;;;;;;;;5084117;28;19937;-62
2023/12/10 05:43:32;;;;;;;;;;;;;;;;;;5084227;28;20054;-62
2023/12/10 05:45:58;;;;;;;;;;;;;;;;;;5087204;28;19961;-63
2023/12/10 05:48:24;;;;;;;;;;;;;;;;;;5080397;28;19913;-63
2023/12/10 05:50:50;;;;;;;;;;;;;;;;;;5086116;28;19962;-63
2023/12/10 05:53:15;;;;;;;;;;;;;;;;;;5081200;28;19951;-63
2023/12/10 05:55:41;;;;;;;;;;;;;;;;;;5084787;28;20398;-63
2023/12/10 05:58:07;;;;;;;;;;;;;;;;;;5084924;28;19927;-63
2023/12/10 06:00:33;;;;;;;;;;;;;;;;;;5084931;28;20003;-63
2023/12/10 06:02:59;;;;;;;;;;;;;;;;;;5080192;28;20412;-63
2023/12/10 06:05:25;;;;;;;;;;;;;;;;;;5084669;28;19986;-63
2023/12/10 06:07:51;;;;;;;;;;;;;;;;;;5090374;28;19912;-63
2023/12/10 06:10:17;;;;;;;;;;;;;;;;;;5081290;28;20372;-63
2023/12/10 06:12:43;;;;;;;;;;;;;;;;;;5084436;28;19958;-62
2023/12/10 06:15:09;;;;;;;;;;;;;;;;;;5088674;28;20334;-63
2023/12/10 06:17:34;;;;;;;;;;;;;;;;;;5084880;28;20440;-63
2023/12/10 06:20:00;;;;;;;;;;;;;;;;;;5081273;28;20007;-63
2023/12/10 06:22:26;;;;;;;;;;;;;;;;;;5090345;28;20303;-63
2023/12/10 06:24:52;;;;;;;;;;;;;;;;;;5080801;28;19919;-63
2023/12/10 06:27:18;;;;;;;;;;;;;;;;;;5091484;28;19920;-62
2023/12/10 06:29:44;;;;;;;;;;;;;;;;;;5082713;28;19966;-62
2023/12/10 06:32:10;;;;;;;;;;;;;;;;;;5083527;28;19912;-63
2023/12/10 06:34:36;;;;;;;;;;;;;;;;;;5074672;28;19912;-63
2023/12/10 06:37:02;;;;;;;;;;;;;;;;;;5079728;28;20363;-63
2023/12/10 06:39:27;;;;;;;;;;;;;;;;;;5086527;28;19997;-63
2023/12/10 06:41:53;;;;;;;;;;;;;;;;;;5091416;28;19951;-63
2023/12/10 06:44:24;;;;;;;;;;;;;;;;;;5091037;28;19939;-64
2023/12/10 06:46:50;;;;;;;;;;;;;;;;;;5082234;28;19916;-59
2023/12/10 06:49:16;;;;;;;;;;;;;;;;;;5077552;28;19920;-60
2023/12/10 06:51:42;;;;;;;;;;;;;;;;;;5084487;28;20387;-60
2023/12/10 06:54:09;;;;;;;;;;;;;;;;;;5078546;28;19916;-60
2023/12/10 06:56:39;;;;;;;;;;;;;;;;;;5088973;28;19916;-60
2023/12/10 06:59:05;;;;;;;;;;;;;;;;;;5081086;28;19912;-60
2023/12/10 07:01:31;;;;;;;;;;;;;;;;;;5086131;28;19968;-59
2023/12/10 07:03:57;;;;;;;;;;;;;;;;;;5090376;28;20003;-61
2023/12/10 07:06:23;;;;;;;;;;;;;;;;;;5080352;28;19959;-62
2023/12/10 07:08:48;;;;;;;;;;;;;;;;;;5086399;28;19961;-60
2023/12/10 07:11:14;;;;;;;;;;;;;;;;;;5088741;28;19965;-59
2023/12/10 07:13:41;;;;;;;;;;;;;;;;;;5087234;28;19976;-59
2023/12/10 07:16:06;;;;;;;;;;;;;;;;;;5087348;28;19916;-60
2023/12/10 07:18:33;;;;;;;;;;;;;;;;;;5084796;28;19951;-59
2023/12/10 07:20:58;;;;;;;;;;;;;;;;;;5081442;28;19973;-60
2023/12/10 07:23:25;;;;;;;;;;;;;;;;;;5093711;28;19920;-60
2023/12/10 07:25:51;;;;;;;;;;;;;;;;;;5084990;28;19912;-59
2023/12/10 07:28:16;;;;;;;;;;;;;;;;;;5088279;28;19947;-60
2023/12/10 07:30:42;;;;;;;;;;;;;;;;;;5085699;28;19984;-60
2023/12/10 07:33:10;;;;;;;;;;;;;;;;;;5083845;28;19916;-61
2023/12/10 07:35:36;;;;;;;;;;;;;;;;;;5086041;28;19912;-60
2023/12/10 07:38:02;;;;;;;;;;;;;;;;;;5091173;28;19962;-60
2023/12/10 07:40:28;;;;;;;;;;;;;;;;;;5079993;28;19919;-59
2023/12/10 07:42:55;;;;;;;;;;;;;;;;;;5088538;28;20372;-60
2023/12/10 07:45:21;;;;;;;;;;;;;;;;;;5079127;28;19920;-60
2023/12/10 07:47:47;;;;;;;;;;;;;;;;;;5082899;28;19923;-60
2023/12/10 07:50:13;;;;;;;;;;;;;;;;;;5081670;28;19999;-60
2023/12/10 07:52:39;;;;;;;;;;;;;;;;;;5081618;28;19920;-61
2023/12/10 07:55:05;;;;;;;;;;;;;;;;;;5075607;28;19951;-63
2023/12/10 07:57:30;;;;;;;;;;;;;;;;;;5085048;28;19920;-64
2023/12/10 07:59:56;;;;;;;;;;;;;;;;;;5080015;28;19947;-64
2023/12/10 08:02:23;;;;;;;;;;;;;;;;;;5081195;28;19916;-64
2023/12/10 08:04:49;;;;;;;;;;;;;;;;;;5085233;28;19996;-65
2023/12/10 08:07:15;;;;;;;;;;;;;;;;;;5084597;28;19919;-63
2023/12/10 08:09:41;;;;;;;;;;;;;;;;;;5084603;28;19916;-63
2023/12/10 08:12:07;;;;;;;;;;;;;;;;;;5076938;28;19975;-65
2023/12/10 08:14:33;;;;;;;;;;;;;;;;;;5081111;28;19917;-63
2023/12/10 08:16:59;;;;;;;;;;;;;;;;;;5087049;28;20387;-65
2023/12/10 08:19:25;;;;;;;;;;;;;;;;;;5083989;28;19965;-63
2023/12/10 08:21:51;;;;;;;;;;;;;;;;;;5082250;28;19956;-63
2023/12/10 08:24:17;;;;;;;;;;;;;;;;;;5087846;28;20010;-63
2023/12/10 08:26:43;;;;;;;;;;;;;;;;;;5081053;28;19926;-63
2023/12/10 08:29:09;;;;;;;;;;;;;;;;;;5082888;28;19998;-64
2023/12/10 08:31:35;;;;;;;;;;;;;;;;;;5081080;28;19926;-65
2023/12/10 08:34:01;;;;;;;;;;;;;;;;;;5088035;28;19916;-62
2023/12/10 08:36:27;;;;;;;;;;;;;;;;;;5088563;28;19989;-65
2023/12/10 08:38:52;;;;;;;;;;;;;;;;;;5079485;28;20364;-64
2023/12/10 08:41:18;;;;;;;;;;;;;;;;;;5082706;28;19920;-65
2023/12/10 08:43:44;;;;;;;;;;;;;;;;;;5086108;28;19970;-64
2023/12/10 08:46:10;;;;;;;;;;;;;;;;;;5078694;28;19920;-62
2023/12/10 08:48:37;;;;;;;;;;;;;;;;;;5087615;28;19919;-64
2023/12/10 08:51:03;;;;;;;;;;;;;;;;;;5080515;28;19912;-62
2023/12/10 08:53:29;;;;;;;;;;;;;;;;;;5091413;28;19915;-65
2023/12/10 08:55:55;;;;;;;;;;;;;;;;;;5086624;28;19951;-65
2023/12/10 08:58:21;;;;;;;;;;;;;;;;;;5076930;28;20429;-64
2023/12/10 09:00:47;;;;;;;;;;;;;;;;;;5076673;28;19920;-64
2023/12/10 09:03:13;;;;;;;;;;;;;;;;;;5083882;28;19947;-64
2023/12/10 09:05:39;;;;;;;;;;;;;;;;;;5088274;28;19955;-64
2023/12/10 09:08:05;;;;;;;;;;;;;;;;;;5073577;28;19912;-65
2023/12/10 09:10:31;;;;;;;;;;;;;;;;;;5077650;28;20049;-65
2023/12/10 09:12:57;;;;;;;;;;;;;;;;;;5079906;28;20012;-65
2023/12/10 09:15:22;;;;;;;;;;;;;;;;;;5081792;28;19930;-65
2023/12/10 09:17:48;;;;;;;;;;;;;;;;;;5080700;28;19951;-65
2023/12/10 09:20:14;;;;;;;;;;;;;;;;;;5077660;28;20417;-64
2023/12/10 09:22:41;;;;;;;;;;;;;;;;;;5079908;28;20015;-65
2023/12/10 09:25:07;;;;;;;;;;;;;;;;;;5080099;28;19920;-65
2023/12/10 09:27:33;;;;;;;;;;;;;;;;;;5082855;28;20004;-65
2023/12/10 09:29:59;;;;;;;;;;;;;;;;;;5083364;28;20242;-65
2023/12/10 09:32:27;;;;;;;;;;;;;;;;;;5084118;28;19951;-65
2023/12/10 09:34:52;;;;;;;;;;;;;;;;;;5089006;28;19920;-65
2023/12/10 09:37:18;;;;;;;;;;;;;;;;;;5074388;28;19913;-65
2023/12/10 09:39:44;;;;;;;;;;;;;;;;;;5080494;28;19952;-65
2023/12/10 09:42:10;;;;;;;;;;;;;;;;;;5083636;28;20011;-65
2023/12/10 09:44:36;;;;;;;;;;;;;;;;;;5079904;28;19912;-65
2023/12/10 09:47:02;;;;;;;;;;;;;;;;;;5080979;28;19952;-65
2023/12/10 09:49:30;;;;;;;;;;;;;;;;;;5078314;28;20407;-65
2023/12/10 09:51:56;;;;;;;;;;;;;;;;;;5089952;28;19912;-65
2023/12/10 09:54:22;;;;;;;;;;;;;;;;;;5077738;28;19965;-64
2023/12/10 09:56:48;;;;;;;;;;;;;;;;;;5086840;28;19916;-64
2023/12/10 09:59:14;;;;;;;;;;;;;;;;;;5087219;28;19974;-64
2023/12/10 10:01:40;;;;;;;;;;;;;;;;;;5082584;28;20283;-65
2023/12/10 10:04:06;;;;;;;;;;;;;;;;;;5081316;28;19943;-64
2023/12/10 10:06:32;;;;;;;;;;;;;;;;;;5077724;28;19920;-64
2023/12/10 10:08:58;;;;;;;;;;;;;;;;;;5082936;28;20416;-64
2023/12/10 10:11:24;;;;;;;;;;;;;;;;;;5084898;28;19919;-64
2023/12/10 10:13:50;;;;;;;;;;;;;;;;;;5079731;28;19967;-64
2023/12/10 10:16:16;;;;;;;;;;;;;;;;;;5084716;28;20440;-59
2023/12/10 10:18:43;;;;;;;;;;;;;;;;;;5086821;28;19924;-59
2023/12/10 10:21:09;;;;;;;;;;;;;;;;;;5082604;28;20007;-59
2023/12/10 10:23:35;;;;;;;;;;;;;;;;;;5073220;28;20003;-60
2023/12/10 10:26:01;;;;;;;;;;;;;;;;;;5090298;28;20053;-63
2023/12/10 10:28:30;;;;;;;;;;;;;;;;;;5075607;28;20007;-61
2023/12/10 10:30:56;;;;;;;;;;;;;;;;;;5072542;28;20007;-58
2023/12/10 10:33:22;;;;;;;;;;;;;;;;;;5074000;28;20003;-59
2023/12/10 10:35:49;;;;;;;;;;;;;;;;;;5087837;28;20011;-60
2023/12/10 10:38:16;;;;;;;;;;;;;;;;;;5088236;28;19931;-60
2023/12/10 10:40:42;;;;;;;;;;;;;;;;;;5079582;28;19938;-61
2023/12/10 10:43:08;;;;;;;;;;;;;;;;;;5078103;28;20046;-60
2023/12/10 10:45:34;;;;;;;;;;;;;;;;;;5083747;28;19934;-60
2023/12/10 10:48:00;;;;;;;;;;;;;;;;;;5094890;28;19908;-59
2023/12/10 10:50:26;;;;;;;;;;;;;;;;;;5093047;28;19914;-61
2023/12/10 10:52:52;;;;;;;;;;;;;;;;;;5088028;28;20316;-59
2023/12/10 10:55:18;;;;;;;;;;;;;;;;;;5094935;28;19916;-61
2023/12/10 10:57:43;;;;;;;;;;;;;;;;;;5091651;28;19912;-60
2023/12/10 11:00:09;;;;;;;;;;;;;;;;;;5089949;28;19958;-62
2023/12/10 11:02:35;;;;;;;;;;;;;;;;;;5093887;28;20378;-59
2023/12/10 11:05:01;;;;;;;;;;;;;;;;;;5086297;28;19915;-61
2023/12/10 11:07:27;;;;;;;;;;;;;;;;;;5081158;28;19916;-60
2023/12/10 11:09:53;;;;;;;;;;;;;;;;;;5088650;28;19952;-61
2023/12/10 11:12:19;;;;;;;;;;;;;;;;;;5085384;28;19959;-60
2023/12/10 11:14:45;;;;;;;;;;;;;;;;;;5089393;28;19950;-60
2023/12/10 11:17:11;;;;;;;;;;;;;;;;;;5074461;28;19912;-63
2023/12/10 11:19:37;;;;;;;;;;;;;;;;;;5089209;28;19915;-62
2023/12/10 11:22:02;;;;;;;;;;;;;;;;;;5090247;28;20362;-61
2023/12/10 11:24:28;;;;;;;;;;;;;;;;;;5088669;28;19912;-65
2023/12/10 11:26:55;;;;;;;;;;;;;;;;;;5076416;28;19947;-64
2023/12/10 11:29:20;;;;;;;;;;;;;;;;;;5084232;28;20371;-64
2023/12/10 11:31:46;;;;;;;;;;;;;;;;;;5079641;28;19950;-64
2023/12/10 11:34:12;;;;;;;;;;;;;;;;;;5084081;28;19912;-64
2023/12/10 11:36:38;;;;;;;;;;;;;;;;;;5088213;28;20363;-64
2023/12/10 11:39:04;;;;;;;;;;;;;;;;;;5085968;28;20489;-64
2023/12/10 11:41:31;;;;;;;;;;;;;;;;;;5081968;28;19986;-64
2023/12/10 11:43:57;;;;;;;;;;;;;;;;;;5088991;28;19912;-64
2023/12/10 11:46:22;;;;;;;;;;;;;;;;;;5085461;28;19995;-63
2023/12/10 11:48:48;;;;;;;;;;;;;;;;;;5082465;28;20395;-64
2023/12/10 11:51:14;;;;;;;;;;;;;;;;;;5089560;28;19916;-64
2023/12/10 11:53:40;;;;;;;;;;;;;;;;;;5090485;28;20014;-64
2023/12/10 11:56:06;;;;;;;;;;;;;;;;;;5086375;28;20435;-64
2023/12/10 11:58:32;;;;;;;;;;;;;;;;;;5089539;28;20007;-64
2023/12/10 12:00:58;;;;;;;;;;;;;;;;;;5084977;28;19918;-64
2023/12/10 12:03:24;;;;;;;;;;;;;;;;;;5085306;28;19955;-64
2023/12/10 12:05:50;;;;;;;;;;;;;;;;;;5081678;28;20289;-64
2023/12/10 12:08:16;;;;;;;;;;;;;;;;;;5085374;28;19912;-64
2023/12/10 12:10:42;;;;;;;;;;;;;;;;;;5084050;28;19919;-63
2023/12/10 12:13:07;;;;;;;;;;;;;;;;;;5084930;28;20014;-64
2023/12/10 12:15:33;;;;;;;;;;;;;;;;;;5084837;28;19954;-63
2023/12/10 12:17:59;;;;;;;;;;;;;;;;;;5088513;28;19927;-63
2023/12/10 12:20:26;;;;;;;;;;;;;;;;;;5076212;28;19943;-63
2023/12/10 12:22:52;;;;;;;;;;;;;;;;;;5080589;28;19923;-63
2023/12/10 12:25:17;;;;;;;;;;;;;;;;;;5084054;28;20006;-63
2023/12/10 12:27:43;;;;;;;;;;;;;;;;;;5084759;28;19985;-63
2023/12/10 12:30:09;;;;;;;;;;;;;;;;;;5082738;28;19955;-63
2023/12/10 12:32:35;;;;;;;;;;;;;;;;;;5080608;28;20265;-63
2023/12/10 12:35:01;;;;;;;;;;;;;;;;;;5078449;28;20366;-63
2023/12/10 12:37:27;;;;;;;;;;;;;;;;;;5084014;28;19920;-62
2023/12/10 12:39:53;;;;;;;;;;;;;;;;;;5077937;28;20082;-63
2023/12/10 12:42:19;;;;;;;;;;;;;;;;;;5087278;28;20394;-63
2023/12/10 12:44:45;;;;;;;;;;;;;;;;;;5081751;28;19926;-63
2023/12/10 12:47:11;;;;;;;;;;;;;;;;;;5083524;28;19967;-63
2023/12/10 12:49:37;;;;;;;;;;;;;;;;;;5085090;28;20257;-63
2023/12/10 12:52:05;;;;;;;;;;;;;;;;;;5088203;28;19913;-61
2023/12/10 12:54:31;;;;;;;;;;;;;;;;;;5082720;28;20280;-62
2023/12/10 12:56:57;;;;;;;;;;;;;;;;;;5084303;28;20037;-63
2023/12/10 12:59:23;;;;;;;;;;;;;;;;;;5087714;28;19991;-62
2023/12/10 13:01:49;;;;;;;;;;;;;;;;;;5077810;28;19922;-63
2023/12/10 13:04:15;;;;;;;;;;;;;;;;;;5080453;28;19916;-61
2023/12/10 13:06:41;;;;;;;;;;;;;;;;;;5082647;28;19974;-62
2023/12/10 13:09:07;;;;;;;;;;;;;;;;;;5079048;28;20478;-64
2023/12/10 13:11:33;;;;;;;;;;;;;;;;;;5078142;28;19916;-64
2023/12/10 13:13:59;;;;;;;;;;;;;;;;;;5079825;28;20415;-62
2023/12/10 13:16:24;;;;;;;;;;;;;;;;;;5081472;28;19912;-62
2023/12/10 13:18:50;;;;;;;;;;;;;;;;;;5083301;28;20007;-62
2023/12/10 13:21:16;;;;;;;;;;;;;;;;;;5081010;28;20853;-63
2023/12/10 13:23:42;;;;;;;;;;;;;;;;;;5080948;28;19954;-63
2023/12/10 13:26:08;;;;;;;;;;;;;;;;;;5080848;28;20326;-63
2023/12/10 13:28:34;;;;;;;;;;;;;;;;;;5085730;28;20321;-60
2023/12/10 13:31:00;;;;;;;;;;;;;;;;;;5088810;28;19987;-61
2023/12/10 13:33:26;;;;;;;;;;;;;;;;;;5081325;28;19916;-63
2023/12/10 13:35:52;;;;;;;;;;;;;;;;;;5082287;28;19951;-62
2023/12/10 13:38:18;;;;;;;;;;;;;;;;;;5086809;28;19959;-61
2023/12/10 13:40:44;;;;;;;;;;;;;;;;;;5085374;28;19944;-61
2023/12/10 13:43:10;;;;;;;;;;;;;;;;;;5077520;28;20039;-63
2023/12/10 13:45:36;;;;;;;;;;;;;;;;;;5081529;28;19959;-61
2023/12/10 13:48:02;;;;;;;;;;;;;;;;;;5080532;28;20412;-62
2023/12/10 13:50:27;;;;;;;;;;;;;;;;;;5081526;28;19992;-61
2023/12/10 13:52:53;;;;;;;;;;;;;;;;;;5075495;28;19965;-63
2023/12/10 13:55:19;;;;;;;;;;;;;;;;;;5080458;28;19908;-63
2023/12/10 13:57:45;;;;;;;;;;;;;;;;;;5084620;28;19919;-60
2023/12/10 14:00:14;;;;;;;;;;;;;;;;;;5080550;28;19959;-63
2023/12/10 14:02:40;;;;;;;;;;;;;;;;;;5083155;28;19912;-61
2023/12/10 14:05:06;;;;;;;;;;;;;;;;;;5090246;28;20340;-62
2023/12/10 14:07:32;;;;;;;;;;;;;;;;;;5091598;28;19931;-63
2023/12/10 14:09:58;;;;;;;;;;;;;;;;;;5077373;28;19908;-63
2023/12/10 14:12:24;;;;;;;;;;;;;;;;;;5086531;28;19944;-62
2023/12/10 14:14:50;;;;;;;;;;;;;;;;;;5087524;28;19951;-62
2023/12/10 14:17:16;;;;;;;;;;;;;;;;;;5087907;28;19954;-63
2023/12/10 14:19:42;;;;;;;;;;;;;;;;;;5081620;28;19952;-62
2023/12/10 14:22:08;;;;;;;;;;;;;;;;;;5094340;28;20018;-62
2023/12/10 14:24:34;;;;;;;;;;;;;;;;;;5083685;28;19912;-62
2023/12/10 14:26:59;;;;;;;;;;;;;;;;;;5095253;28;19916;-62
2023/12/10 14:29:25;;;;;;;;;;;;;;;;;;5079743;28;20602;-62
2023/12/10 14:31:51;;;;;;;;;;;;;;;;;;5081797;28;19912;-62
2023/12/10 14:34:17;;;;;;;;;;;;;;;;;;5088084;28;19939;-62
2023/12/10 14:36:43;;;;;;;;;;;;;;;;;;5089873;28;19908;-62
2023/12/10 14:39:09;;;;;;;;;;;;;;;;;;5089361;28;19955;-62
2023/12/10 14:41:35;;;;;;;;;;;;;;;;;;5076961;28;19927;-63
2023/12/10 14:44:01;;;;;;;;;;;;;;;;;;5089324;28;20326;-62
2023/12/10 14:46:27;;;;;;;;;;;;;;;;;;5076868;28;19957;-63
2023/12/10 14:48:53;;;;;;;;;;;;;;;;;;5086708;28;19967;-63
2023/12/10 14:51:18;;;;;;;;;;;;;;;;;;5082714;28;19923;-63
2023/12/10 14:53:44;;;;;;;;;;;;;;;;;;5086131;28;19912;-63
2023/12/10 14:56:10;;;;;;;;;;;;;;;;;;5085712;28;19936;-64
2023/12/10 14:58:36;;;;;;;;;;;;;;;;;;5094786;28;20403;-63
2023/12/10 15:01:03;;;;;;;;;;;;;;;;;;5084577;28;19952;-63
2023/12/10 15:03:28;;;;;;;;;;;;;;;;;;5089464;28;19916;-64
2023/12/10 15:05:54;;;;;;;;;;;;;;;;;;5079472;28;19912;-64
2023/12/10 15:08:21;;;;;;;;;;;;;;;;;;5082486;28;19987;-63
2023/12/10 15:10:47;;;;;;;;;;;;;;;;;;5084587;28;20110;-64
2023/12/10 15:13:12;;;;;;;;;;;;;;;;;;5090379;28;20022;-66
2023/12/10 15:15:38;;;;;;;;;;;;;;;;;;5090572;28;20077;-63
2023/12/10 15:18:04;;;;;;;;;;;;;;;;;;5082995;28;19994;-63
2023/12/10 15:20:30;;;;;;;;;;;;;;;;;;5087549;28;19916;-64
2023/12/10 15:22:57;;;;;;;;;;;;;;;;;;5085743;28;20388;-64
2023/12/10 15:25:24;;;;;;;;;;;;;;;;;;5085596;28;19981;-64
2023/12/10 15:27:50;;;;;;;;;;;;;;;;;;5090239;28;19990;-64
2023/12/10 15:30:16;;;;;;;;;;;;;;;;;;5081937;28;20003;-64
2023/12/10 15:32:46;;;;;;;;;;;;;;;;;;5081751;28;21653;-64
2023/12/10 15:35:12;;;;;;;;;;;;;;;;;;5094187;28;19948;-64
2023/12/10 15:37:38;;;;;;;;;;;;;;;;;;5087281;28;19996;-63
2023/12/10 15:40:04;;;;;;;;;;;;;;;;;;5083454;28;19948;-64
2023/12/10 15:42:30;;;;;;;;;;;;;;;;;;5085269;28;20015;-64
2023/12/10 15:44:56;;;;;;;;;;;;;;;;;;5079189;28;20370;-64
2023/12/10 15:47:22;;;;;;;;;;;;;;;;;;5083085;28;19916;-64
2023/12/10 15:49:48;;;;;;;;;;;;;;;;;;5082183;28;19959;-63
2023/12/10 15:52:14;;;;;;;;;;;;;;;;;;5085853;28;19969;-63
2023/12/10 15:54:40;;;;;;;;;;;;;;;;;;5083452;28;20353;-63
2023/12/10 15:57:06;;;;;;;;;;;;;;;;;;5088385;28;19919;-64
2023/12/10 15:59:32;;;;;;;;;;;;;;;;;;5081532;28;19912;-64
2023/12/10 16:01:58;;;;;;;;;;;;;;;;;;5089229;28;20352;-64
2023/12/10 16:04:24;;;;;;;;;;;;;;;;;;5091112;28;20014;-60
2023/12/10 16:06:50;;;;;;;;;;;;;;;;;;5084535;28;19912;-64
2023/12/10 16:09:16;;;;;;;;;;;;;;;;;;5084243;28;19944;-64
2023/12/10 16:11:42;;;;;;;;;;;;;;;;;;5082820;28;19922;-64
2023/12/10 16:14:08;;;;;;;;;;;;;;;;;;5086433;28;19912;-64
2023/12/10 16:16:34;;;;;;;;;;;;;;;;;;5077934;28;20363;-64
2023/12/10 16:19:00;;;;;;;;;;;;;;;;;;5083968;28;19912;-64
2023/12/10 16:21:26;;;;;;;;;;;;;;;;;;5087150;28;19924;-64
2023/12/10 16:23:52;;;;;;;;;;;;;;;;;;5090161;28;20374;-64
2023/12/10 16:26:18;;;;;;;;;;;;;;;;;;5086445;28;19923;-64
2023/12/10 16:28:44;;;;;;;;;;;;;;;;;;5085786;28;19999;-65
2023/12/10 16:31:10;;;;;;;;;;;;;;;;;;5077502;28;20356;-65
2023/12/10 16:33:36;;;;;;;;;;;;;;;;;;5080521;28;19919;-66
2023/12/10 16:36:02;;;;;;;;;;;;;;;;;;5083595;28;19952;-65